CONNECT WITH FLYNQY PILOT TRAINING

Newquay Five Day Forecast

This Weather Widget is provided by the Met Office

EGHQ TAF and METAR

METAR

EGHQ 311850Z 25017KT 9999 -RA SCT008 SCT014 16/15 Q1011

TAF

TAF EGHQ 311700Z 3118/3122 19017KT 8000 SCT012 TEMPO 3118/3122 4000 RA BKN004 PROB30 TEMPO 3118/3120 19020G30KT BECMG 3120/3122 19007KT